sensor_id;sensor_type;location;lat;lon;timestamp;temperature;humidity
68922;DHT22;55959;51.244;5.724;2023-01-29T00:02:23;1.70;70.60
68922;DHT22;55959;51.244;5.724;2023-01-29T00:04:49;1.70;69.70
68922;DHT22;55959;51.244;5.724;2023-01-29T00:07:15;1.60;69.60
68922;DHT22;55959;51.244;5.724;2023-01-29T00:09:40;1.60;69.60
68922;DHT22;55959;51.244;5.724;2023-01-29T00:12:06;1.60;69.50
68922;DHT22;55959;51.244;5.724;2023-01-29T00:14:34;1.60;69.50
68922;DHT22;55959;51.244;5.724;2023-01-29T00:17:00;1.60;69.60
68922;DHT22;55959;51.244;5.724;2023-01-29T00:19:26;1.60;69.70
68922;DHT22;55959;51.244;5.724;2023-01-29T00:21:52;1.60;69.70
68922;DHT22;55959;51.244;5.724;2023-01-29T00:24:17;1.60;69.80
68922;DHT22;55959;51.244;5.724;2023-01-29T00:26:43;1.50;70.00
68922;DHT22;55959;51.244;5.724;2023-01-29T00:29:09;1.50;70.10
68922;DHT22;55959;51.244;5.724;2023-01-29T00:31:35;1.50;70.20
68922;DHT22;55959;51.244;5.724;2023-01-29T00:34:01;1.50;70.40
68922;DHT22;55959;51.244;5.724;2023-01-29T00:36:27;1.50;70.40
68922;DHT22;55959;51.244;5.724;2023-01-29T00:38:54;1.50;70.50
68922;DHT22;55959;51.244;5.724;2023-01-29T00:41:29;1.40;70.60
68922;DHT22;55959;51.244;5.724;2023-01-29T00:44:15;1.40;70.60
68922;DHT22;55959;51.244;5.724;2023-01-29T00:46:59;1.40;70.80
68922;DHT22;55959;51.244;5.724;2023-01-29T00:49:25;1.40;71.00
68922;DHT22;55959;51.244;5.724;2023-01-29T00:51:51;1.40;71.00
68922;DHT22;55959;51.244;5.724;2023-01-29T00:54:36;1.40;71.00
68922;DHT22;55959;51.244;5.724;2023-01-29T00:57:02;1.40;70.90
68922;DHT22;55959;51.244;5.724;2023-01-29T00:59:28;1.30;70.80
68922;DHT22;55959;51.244;5.724;2023-01-29T01:01:54;1.30;70.60
68922;DHT22;55959;51.244;5.724;2023-01-29T01:04:39;1.30;71.50
68922;DHT22;55959;51.244;5.724;2023-01-29T01:07:05;1.30;70.70
68922;DHT22;55959;51.244;5.724;2023-01-29T01:09:31;1.30;70.80
68922;DHT22;55959;51.244;5.724;2023-01-29T01:12:18;1.30;70.80
68922;DHT22;55959;51.244;5.724;2023-01-29T01:14:44;1.30;70.80
68922;DHT22;55959;51.244;5.724;2023-01-29T01:17:10;1.30;70.90
68922;DHT22;55959;51.244;5.724;2023-01-29T01:19:36;1.30;71.00
68922;DHT22;55959;51.244;5.724;2023-01-29T01:22:01;1.20;71.20
68922;DHT22;55959;51.244;5.724;2023-01-29T01:24:29;1.20;71.20
68922;DHT22;55959;51.244;5.724;2023-01-29T01:26:55;1.20;71.40
68922;DHT22;55959;51.244;5.724;2023-01-29T01:29:20;1.20;71.40
68922;DHT22;55959;51.244;5.724;2023-01-29T01:31:46;1.20;71.50
68922;DHT22;55959;51.244;5.724;2023-01-29T01:34:12;1.20;71.60
68922;DHT22;55959;51.244;5.724;2023-01-29T01:36:38;1.20;71.80
68922;DHT22;55959;51.244;5.724;2023-01-29T01:39:03;1.20;71.90
68922;DHT22;55959;51.244;5.724;2023-01-29T01:41:29;1.20;72.00
68922;DHT22;55959;51.244;5.724;2023-01-29T01:44:01;1.20;72.00
68922;DHT22;55959;51.244;5.724;2023-01-29T01:46:29;1.20;72.00
68922;DHT22;55959;51.244;5.724;2023-01-29T01:49:02;1.20;72.00
68922;DHT22;55959;51.244;5.724;2023-01-29T01:51:32;1.20;72.00
68922;DHT22;55959;51.244;5.724;2023-01-29T01:54:07;1.20;72.00
68922;DHT22;55959;51.244;5.724;2023-01-29T01:56:39;1.20;72.00
68922;DHT22;55959;51.244;5.724;2023-01-29T01:59:14;1.20;71.90
68922;DHT22;55959;51.244;5.724;2023-01-29T02:01:45;1.10;71.80
68922;DHT22;55959;51.244;5.724;2023-01-29T02:04:17;1.20;71.80
68922;DHT22;55959;51.244;5.724;2023-01-29T02:07:07;1.10;71.60
68922;DHT22;55959;51.244;5.724;2023-01-29T02:10:09;1.10;71.60
68922;DHT22;55959;51.244;5.724;2023-01-29T02:12:37;1.10;71.60
68922;DHT22;55959;51.244;5.724;2023-01-29T02:15:03;1.10;71.60
68922;DHT22;55959;51.244;5.724;2023-01-29T02:17:30;1.10;71.60
68922;DHT22;55959;51.244;5.724;2023-01-29T02:20:17;1.10;71.70
68922;DHT22;55959;51.244;5.724;2023-01-29T02:28:46;1.00;72.60
68922;DHT22;55959;51.244;5.724;2023-01-29T02:31:43;1.00;71.80
68922;DHT22;55959;51.244;5.724;2023-01-29T02:34:17;1.00;71.80
68922;DHT22;55959;51.244;5.724;2023-01-29T02:36:54;1.00;71.90
68922;DHT22;55959;51.244;5.724;2023-01-29T02:39:48;1.00;72.00
68922;DHT22;55959;51.244;5.724;2023-01-29T02:42:27;1.00;72.00
68922;DHT22;55959;51.244;5.724;2023-01-29T02:45:17;1.00;72.00
68922;DHT22;55959;51.244;5.724;2023-01-29T02:47:47;1.00;72.10
68922;DHT22;55959;51.244;5.724;2023-01-29T02:50:37;1.00;72.30
68922;DHT22;55959;51.244;5.724;2023-01-29T02:56:11;1.00;72.50
68922;DHT22;55959;51.244;5.724;2023-01-29T02:58:45;1.00;72.70
68922;DHT22;55959;51.244;5.724;2023-01-29T03:01:37;1.00;72.70
68922;DHT22;55959;51.244;5.724;2023-01-29T03:04:10;1.00;72.80
68922;DHT22;55959;51.244;5.724;2023-01-29T03:06:40;1.10;72.80
68922;DHT22;55959;51.244;5.724;2023-01-29T03:09:14;1.10;72.90
68922;DHT22;55959;51.244;5.724;2023-01-29T03:11:48;1.10;73.00
68922;DHT22;55959;51.244;5.724;2023-01-29T03:14:33;1.10;73.00
68922;DHT22;55959;51.244;5.724;2023-01-29T03:17:21;1.10;73.00
68922;DHT22;55959;51.244;5.724;2023-01-29T03:19:50;1.10;73.00
68922;DHT22;55959;51.244;5.724;2023-01-29T03:22:16;1.20;73.20
68922;DHT22;55959;51.244;5.724;2023-01-29T03:24:57;1.20;73.20
68922;DHT22;55959;51.244;5.724;2023-01-29T03:27:46;1.20;73.20
68922;DHT22;55959;51.244;5.724;2023-01-29T03:30:41;1.20;73.30
68922;DHT22;55959;51.244;5.724;2023-01-29T03:33:49;1.20;73.30
68922;DHT22;55959;51.244;5.724;2023-01-29T03:36:22;1.20;73.40
68922;DHT22;55959;51.244;5.724;2023-01-29T03:39:06;1.20;73.40
68922;DHT22;55959;51.244;5.724;2023-01-29T03:47:19;1.30;73.40
68922;DHT22;55959;51.244;5.724;2023-01-29T03:49:59;1.30;73.40
68922;DHT22;55959;51.244;5.724;2023-01-29T03:52:58;1.30;73.40
68922;DHT22;55959;51.244;5.724;2023-01-29T03:55:37;1.30;73.50
68922;DHT22;55959;51.244;5.724;2023-01-29T04:01:18;1.30;73.30
68922;DHT22;55959;51.244;5.724;2023-01-29T04:03:51;1.30;73.40
68922;DHT22;55959;51.244;5.724;2023-01-29T04:06:25;1.30;73.40
68922;DHT22;55959;51.244;5.724;2023-01-29T04:08:59;1.30;73.40
68922;DHT22;55959;51.244;5.724;2023-01-29T04:12:13;1.30;73.40
68922;DHT22;55959;51.244;5.724;2023-01-29T04:14:40;1.30;73.50
68922;DHT22;55959;51.244;5.724;2023-01-29T04:17:22;1.30;73.60
68922;DHT22;55959;51.244;5.724;2023-01-29T04:19:53;1.30;73.70
68922;DHT22;55959;51.244;5.724;2023-01-29T04:22:22;1.30;73.80
68922;DHT22;55959;51.244;5.724;2023-01-29T04:24:51;1.30;73.80
68922;DHT22;55959;51.244;5.724;2023-01-29T04:30:51;1.40;73.80
68922;DHT22;55959;51.244;5.724;2023-01-29T04:39:21;1.30;73.70
68922;DHT22;55959;51.244;5.724;2023-01-29T04:42:05;1.30;73.70
68922;DHT22;55959;51.244;5.724;2023-01-29T04:44:57;1.30;73.70
68922;DHT22;55959;51.244;5.724;2023-01-29T04:47:58;1.30;73.80
68922;DHT22;55959;51.244;5.724;2023-01-29T04:53:57;1.40;74.00
68922;DHT22;55959;51.244;5.724;2023-01-29T04:59:44;1.40;74.40
68922;DHT22;55959;51.244;5.724;2023-01-29T05:02:13;1.40;74.50
68922;DHT22;55959;51.244;5.724;2023-01-29T05:04:40;1.40;74.60
68922;DHT22;55959;51.244;5.724;2023-01-29T05:07:12;1.40;74.70
68922;DHT22;55959;51.244;5.724;2023-01-29T05:09:39;1.50;74.80
68922;DHT22;55959;51.244;5.724;2023-01-29T05:12:10;1.50;74.80
68922;DHT22;55959;51.244;5.724;2023-01-29T05:14:39;1.50;74.80
68922;DHT22;55959;51.244;5.724;2023-01-29T05:17:15;1.60;74.90
68922;DHT22;55959;51.244;5.724;2023-01-29T05:19:43;1.60;74.90
68922;DHT22;55959;51.244;5.724;2023-01-29T05:22:11;1.70;74.90
68922;DHT22;55959;51.244;5.724;2023-01-29T05:24:38;1.70;74.90
68922;DHT22;55959;51.244;5.724;2023-01-29T05:27:04;1.70;75.70
68922;DHT22;55959;51.244;5.724;2023-01-29T05:29:48;1.80;74.80
68922;DHT22;55959;51.244;5.724;2023-01-29T05:32:14;1.80;74.90
68922;DHT22;55959;51.244;5.724;2023-01-29T05:34:41;1.80;74.90
68922;DHT22;55959;51.244;5.724;2023-01-29T05:37:09;1.80;74.80
68922;DHT22;55959;51.244;5.724;2023-01-29T05:39:35;1.80;74.90
68922;DHT22;55959;51.244;5.724;2023-01-29T05:42:02;1.90;75.00
68922;DHT22;55959;51.244;5.724;2023-01-29T05:44:28;1.90;75.00
68922;DHT22;55959;51.244;5.724;2023-01-29T05:46:54;1.90;75.00
68922;DHT22;55959;51.244;5.724;2023-01-29T05:49:19;1.90;75.00
68922;DHT22;55959;51.244;5.724;2023-01-29T05:51:46;2.00;75.00
68922;DHT22;55959;51.244;5.724;2023-01-29T05:54:12;2.00;75.00
68922;DHT22;55959;51.244;5.724;2023-01-29T05:56:38;2.00;75.00
68922;DHT22;55959;51.244;5.724;2023-01-29T05:59:05;2.00;75.00
68922;DHT22;55959;51.244;5.724;2023-01-29T06:01:32;2.00;75.00
68922;DHT22;55959;51.244;5.724;2023-01-29T06:03:57;2.00;75.00
68922;DHT22;55959;51.244;5.724;2023-01-29T06:06:23;2.10;75.00
68922;DHT22;55959;51.244;5.724;2023-01-29T06:08:49;2.10;75.00
68922;DHT22;55959;51.244;5.724;2023-01-29T06:11:15;2.10;75.20
68922;DHT22;55959;51.244;5.724;2023-01-29T06:13:43;2.20;76.00
68922;DHT22;55959;51.244;5.724;2023-01-29T06:16:10;2.20;75.20
68922;DHT22;55959;51.244;5.724;2023-01-29T06:18:37;2.20;75.20
68922;DHT22;55959;51.244;5.724;2023-01-29T06:21:06;2.30;75.20
68922;DHT22;55959;51.244;5.724;2023-01-29T06:23:33;2.30;75.20
68922;DHT22;55959;51.244;5.724;2023-01-29T06:26:08;2.30;75.20
68922;DHT22;55959;51.244;5.724;2023-01-29T06:28:36;2.30;75.20
68922;DHT22;55959;51.244;5.724;2023-01-29T06:31:03;2.30;75.20
68922;DHT22;55959;51.244;5.724;2023-01-29T06:33:29;2.40;75.20
68922;DHT22;55959;51.244;5.724;2023-01-29T06:36:00;2.40;75.20
68922;DHT22;55959;51.244;5.724;2023-01-29T06:38:26;2.40;75.20
68922;DHT22;55959;51.244;5.724;2023-01-29T06:40:53;2.40;75.10
68922;DHT22;55959;51.244;5.724;2023-01-29T06:43:20;2.50;75.20
68922;DHT22;55959;51.244;5.724;2023-01-29T06:45:52;2.50;75.20
68922;DHT22;55959;51.244;5.724;2023-01-29T06:48:19;2.50;75.20
68922;DHT22;55959;51.244;5.724;2023-01-29T06:50:46;2.50;75.20
68922;DHT22;55959;51.244;5.724;2023-01-29T06:53:13;2.60;75.20
68922;DHT22;55959;51.244;5.724;2023-01-29T06:55:40;2.50;75.10
68922;DHT22;55959;51.244;5.724;2023-01-29T06:58:07;2.60;75.20
68922;DHT22;55959;51.244;5.724;2023-01-29T07:00:34;2.60;75.20
68922;DHT22;55959;51.244;5.724;2023-01-29T07:03:00;2.60;75.20
68922;DHT22;55959;51.244;5.724;2023-01-29T07:05:27;2.60;75.20
68922;DHT22;55959;51.244;5.724;2023-01-29T07:07:53;2.60;75.20
68922;DHT22;55959;51.244;5.724;2023-01-29T07:10:19;2.60;75.20
68922;DHT22;55959;51.244;5.724;2023-01-29T07:12:45;2.70;75.30
68922;DHT22;55959;51.244;5.724;2023-01-29T07:15:10;2.70;75.30
68922;DHT22;55959;51.244;5.724;2023-01-29T07:17:37;2.70;75.30
68922;DHT22;55959;51.244;5.724;2023-01-29T07:20:04;2.70;75.30
68922;DHT22;55959;51.244;5.724;2023-01-29T07:22:31;2.70;75.20
68922;DHT22;55959;51.244;5.724;2023-01-29T07:24:57;2.70;75.20
68922;DHT22;55959;51.244;5.724;2023-01-29T07:27:23;2.70;75.20
68922;DHT22;55959;51.244;5.724;2023-01-29T07:29:49;2.70;75.20
68922;DHT22;55959;51.244;5.724;2023-01-29T07:32:15;2.80;75.30
68922;DHT22;55959;51.244;5.724;2023-01-29T07:34:41;2.70;75.30
68922;DHT22;55959;51.244;5.724;2023-01-29T07:37:06;2.70;75.40
68922;DHT22;55959;51.244;5.724;2023-01-29T07:39:32;2.80;75.50
68922;DHT22;55959;51.244;5.724;2023-01-29T07:41:58;2.80;75.60
68922;DHT22;55959;51.244;5.724;2023-01-29T07:44:24;2.80;75.60
68922;DHT22;55959;51.244;5.724;2023-01-29T07:46:49;2.80;75.60
68922;DHT22;55959;51.244;5.724;2023-01-29T07:49:15;2.80;75.70
68922;DHT22;55959;51.244;5.724;2023-01-29T07:51:41;2.80;75.70
68922;DHT22;55959;51.244;5.724;2023-01-29T07:54:07;2.80;75.70
68922;DHT22;55959;51.244;5.724;2023-01-29T07:56:32;2.90;75.80
68922;DHT22;55959;51.244;5.724;2023-01-29T07:58:58;2.90;75.80
68922;DHT22;55959;51.244;5.724;2023-01-29T08:01:24;2.90;75.80
68922;DHT22;55959;51.244;5.724;2023-01-29T08:03:50;2.90;75.70
68922;DHT22;55959;51.244;5.724;2023-01-29T08:06:15;2.90;75.70
68922;DHT22;55959;51.244;5.724;2023-01-29T08:08:41;3.00;75.70
68922;DHT22;55959;51.244;5.724;2023-01-29T08:11:07;3.00;75.80
68922;DHT22;55959;51.244;5.724;2023-01-29T08:13:33;3.00;75.70
68922;DHT22;55959;51.244;5.724;2023-01-29T08:16:03;3.00;75.60
68922;DHT22;55959;51.244;5.724;2023-01-29T08:18:29;3.00;75.60
68922;DHT22;55959;51.244;5.724;2023-01-29T08:21:02;3.10;75.70
68922;DHT22;55959;51.244;5.724;2023-01-29T08:23:28;3.10;75.70
68922;DHT22;55959;51.244;5.724;2023-01-29T08:25:54;3.10;75.60
68922;DHT22;55959;51.244;5.724;2023-01-29T08:28:20;3.10;75.60
68922;DHT22;55959;51.244;5.724;2023-01-29T08:30:46;3.10;75.50
68922;DHT22;55959;51.244;5.724;2023-01-29T08:33:11;3.10;75.60
68922;DHT22;55959;51.244;5.724;2023-01-29T08:35:37;3.20;75.60
68922;DHT22;55959;51.244;5.724;2023-01-29T08:38:05;3.20;75.50
68922;DHT22;55959;51.244;5.724;2023-01-29T08:40:33;3.20;75.40
68922;DHT22;55959;51.244;5.724;2023-01-29T08:43:06;3.30;75.50
68922;DHT22;55959;51.244;5.724;2023-01-29T08:45:33;3.30;75.40
68922;DHT22;55959;51.244;5.724;2023-01-29T08:48:00;3.30;75.40
68922;DHT22;55959;51.244;5.724;2023-01-29T08:50:26;3.30;75.20
68922;DHT22;55959;51.244;5.724;2023-01-29T08:52:58;3.30;75.20
68922;DHT22;55959;51.244;5.724;2023-01-29T08:55:25;3.30;75.30
68922;DHT22;55959;51.244;5.724;2023-01-29T08:57:51;3.30;75.30
68922;DHT22;55959;51.244;5.724;2023-01-29T09:00:17;3.30;75.20
68922;DHT22;55959;51.244;5.724;2023-01-29T09:02:43;3.30;75.20
68922;DHT22;55959;51.244;5.724;2023-01-29T09:05:09;3.30;75.00
68922;DHT22;55959;51.244;5.724;2023-01-29T09:07:35;3.30;75.00
68922;DHT22;55959;51.244;5.724;2023-01-29T09:10:01;3.30;75.10
68922;DHT22;55959;51.244;5.724;2023-01-29T09:12:30;3.30;75.20
68922;DHT22;55959;51.244;5.724;2023-01-29T09:14:58;3.30;75.20
68922;DHT22;55959;51.244;5.724;2023-01-29T09:17:24;3.30;75.20
68922;DHT22;55959;51.244;5.724;2023-01-29T09:19:49;3.30;75.20
68922;DHT22;55959;51.244;5.724;2023-01-29T09:22:17;3.30;75.20
68922;DHT22;55959;51.244;5.724;2023-01-29T09:24:44;3.30;75.20
68922;DHT22;55959;51.244;5.724;2023-01-29T09:27:09;3.40;76.20
68922;DHT22;55959;51.244;5.724;2023-01-29T09:29:36;3.40;75.40
68922;DHT22;55959;51.244;5.724;2023-01-29T09:32:03;3.40;75.40
68922;DHT22;55959;51.244;5.724;2023-01-29T09:34:29;3.50;75.40
68922;DHT22;55959;51.244;5.724;2023-01-29T09:36:55;3.50;75.40
68922;DHT22;55959;51.244;5.724;2023-01-29T09:39:21;3.50;75.30
68922;DHT22;55959;51.244;5.724;2023-01-29T09:42:02;3.50;75.30
68922;DHT22;55959;51.244;5.724;2023-01-29T09:47:31;3.60;75.40
68922;DHT22;55959;51.244;5.724;2023-01-29T09:55:49;3.70;75.30
68922;DHT22;55959;51.244;5.724;2023-01-29T09:58:31;3.70;75.30
68922;DHT22;55959;51.244;5.724;2023-01-29T10:07:49;3.80;75.30
68922;DHT22;55959;51.244;5.724;2023-01-29T10:13:28;3.80;75.30
68922;DHT22;55959;51.244;5.724;2023-01-29T10:16:14;3.80;75.30
68922;DHT22;55959;51.244;5.724;2023-01-29T10:21:47;3.90;75.10
68922;DHT22;55959;51.244;5.724;2023-01-29T10:24:45;3.90;75.10
68922;DHT22;55959;51.244;5.724;2023-01-29T10:27:17;4.00;75.10
68922;DHT22;55959;51.244;5.724;2023-01-29T10:29:44;4.00;75.10
68922;DHT22;55959;51.244;5.724;2023-01-29T10:32:17;4.00;75.10
68922;DHT22;55959;51.244;5.724;2023-01-29T10:34:48;4.10;75.00
68922;DHT22;55959;51.244;5.724;2023-01-29T10:37:38;4.10;74.90
68922;DHT22;55959;51.244;5.724;2023-01-29T10:40:55;4.20;74.80
68922;DHT22;55959;51.244;5.724;2023-01-29T10:43:28;4.20;74.70
68922;DHT22;55959;51.244;5.724;2023-01-29T10:46:31;4.20;74.70
68922;DHT22;55959;51.244;5.724;2023-01-29T10:49:07;4.30;75.60
68922;DHT22;55959;51.244;5.724;2023-01-29T11:01:10;4.30;74.40
68922;DHT22;55959;51.244;5.724;2023-01-29T11:03:37;4.40;74.50
68922;DHT22;55959;51.244;5.724;2023-01-29T11:11:51;4.50;74.30
68922;DHT22;55959;51.244;5.724;2023-01-29T11:17:00;4.50;74.10
68922;DHT22;55959;51.244;5.724;2023-01-29T11:19:40;4.60;74.10
68922;DHT22;55959;51.244;5.724;2023-01-29T11:22:16;4.60;74.00
68922;DHT22;55959;51.244;5.724;2023-01-29T11:24:44;4.60;73.90
68922;DHT22;55959;51.244;5.724;2023-01-29T11:27:25;4.70;73.80
68922;DHT22;55959;51.244;5.724;2023-01-29T11:29:54;4.70;73.70
68922;DHT22;55959;51.244;5.724;2023-01-29T11:39:57;4.80;73.50
68922;DHT22;55959;51.244;5.724;2023-01-29T11:42:23;4.80;73.40
68922;DHT22;55959;51.244;5.724;2023-01-29T11:44:51;4.80;73.30
68922;DHT22;55959;51.244;5.724;2023-01-29T11:49:54;4.90;73.20
68922;DHT22;55959;51.244;5.724;2023-01-29T11:52:23;4.90;73.10
68922;DHT22;55959;51.244;5.724;2023-01-29T11:55:43;4.90;73.10
68922;DHT22;55959;51.244;5.724;2023-01-29T12:00:46;4.90;73.10
68922;DHT22;55959;51.244;5.724;2023-01-29T12:03:21;5.00;73.10
68922;DHT22;55959;51.244;5.724;2023-01-29T12:06:20;5.00;73.10
68922;DHT22;55959;51.244;5.724;2023-01-29T12:09:02;5.00;72.90
68922;DHT22;55959;51.244;5.724;2023-01-29T12:11:33;5.00;72.90
68922;DHT22;55959;51.244;5.724;2023-01-29T12:14:02;5.10;72.80
68922;DHT22;55959;51.244;5.724;2023-01-29T12:16:50;5.10;72.70
68922;DHT22;55959;51.244;5.724;2023-01-29T12:19:57;5.10;72.70
68922;DHT22;55959;51.244;5.724;2023-01-29T12:22:50;5.20;72.50
68922;DHT22;55959;51.244;5.724;2023-01-29T12:31:16;5.20;72.50
68922;DHT22;55959;51.244;5.724;2023-01-29T12:34:00;5.20;72.40
68922;DHT22;55959;51.244;5.724;2023-01-29T12:36:39;5.20;72.40
68922;DHT22;55959;51.244;5.724;2023-01-29T12:39:14;5.30;72.50
68922;DHT22;55959;51.244;5.724;2023-01-29T12:44:39;5.40;72.10
68922;DHT22;55959;51.244;5.724;2023-01-29T12:50:25;5.40;71.90
68922;DHT22;55959;51.244;5.724;2023-01-29T12:55:54;5.50;71.70
68922;DHT22;55959;51.244;5.724;2023-01-29T12:58:37;5.50;71.50
68922;DHT22;55959;51.244;5.724;2023-01-29T13:06:48;5.50;71.30
68922;DHT22;55959;51.244;5.724;2023-01-29T13:09:22;5.60;71.20
68922;DHT22;55959;51.244;5.724;2023-01-29T13:11:56;5.60;71.10
68922;DHT22;55959;51.244;5.724;2023-01-29T13:14:38;5.60;70.90
68922;DHT22;55959;51.244;5.724;2023-01-29T13:19:54;5.70;70.60
68922;DHT22;55959;51.244;5.724;2023-01-29T13:22:27;5.70;70.50
68922;DHT22;55959;51.244;5.724;2023-01-29T13:24:58;5.70;70.50
68922;DHT22;55959;51.244;5.724;2023-01-29T13:27:26;5.70;70.30
68922;DHT22;55959;51.244;5.724;2023-01-29T13:29:54;5.70;70.30
68922;DHT22;55959;51.244;5.724;2023-01-29T13:32:27;5.70;70.10
68922;DHT22;55959;51.244;5.724;2023-01-29T13:34:58;5.80;69.90
68922;DHT22;55959;51.244;5.724;2023-01-29T13:39:57;5.80;69.70
68922;DHT22;55959;51.244;5.724;2023-01-29T13:42:37;5.70;69.50
68922;DHT22;55959;51.244;5.724;2023-01-29T13:45:05;5.80;69.50
68922;DHT22;55959;51.244;5.724;2023-01-29T13:47:34;5.80;69.50
68922;DHT22;55959;51.244;5.724;2023-01-29T14:13:48;5.80;69.30
68922;DHT22;55959;51.244;5.724;2023-01-29T14:18:48;5.80;69.50
68922;DHT22;55959;51.244;5.724;2023-01-29T14:21:21;5.80;69.50
68922;DHT22;55959;51.244;5.724;2023-01-29T14:23:57;5.80;69.50
68922;DHT22;55959;51.244;5.724;2023-01-29T14:26:43;5.80;69.50
68922;DHT22;55959;51.244;5.724;2023-01-29T14:34:18;5.80;69.50
68922;DHT22;55959;51.244;5.724;2023-01-29T14:37:30;5.80;69.50
68922;DHT22;55959;51.244;5.724;2023-01-29T14:40:12;5.80;69.60
68922;DHT22;55959;51.244;5.724;2023-01-29T14:45:39;5.90;69.50
68922;DHT22;55959;51.244;5.724;2023-01-29T14:56:09;5.90;69.60
68922;DHT22;55959;51.244;5.724;2023-01-29T14:58:42;5.90;69.60
68922;DHT22;55959;51.244;5.724;2023-01-29T15:04:05;5.90;69.60
68922;DHT22;55959;51.244;5.724;2023-01-29T15:06:49;6.00;69.60
68922;DHT22;55959;51.244;5.724;2023-01-29T15:12:24;6.00;69.50
68922;DHT22;55959;51.244;5.724;2023-01-29T15:20:47;6.00;69.30
68922;DHT22;55959;51.244;5.724;2023-01-29T15:23:27;6.00;69.50
68922;DHT22;55959;51.244;5.724;2023-01-29T15:25:55;6.00;69.50
68922;DHT22;55959;51.244;5.724;2023-01-29T15:28:28;6.10;69.50
68922;DHT22;55959;51.244;5.724;2023-01-29T15:30:59;6.10;69.50
68922;DHT22;55959;51.244;5.724;2023-01-29T15:33:27;6.10;69.30
68922;DHT22;55959;51.244;5.724;2023-01-29T15:35:58;6.10;69.20
68922;DHT22;55959;51.244;5.724;2023-01-29T15:38:25;6.10;69.20
68922;DHT22;55959;51.244;5.724;2023-01-29T15:41:01;6.20;69.30
68922;DHT22;55959;51.244;5.724;2023-01-29T15:43:42;6.10;69.20
68922;DHT22;55959;51.244;5.724;2023-01-29T15:48:50;6.20;69.10
68922;DHT22;55959;51.244;5.724;2023-01-29T15:51:20;6.20;69.10
68922;DHT22;55959;51.244;5.724;2023-01-29T15:53:50;6.20;69.10
68922;DHT22;55959;51.244;5.724;2023-01-29T15:56:22;6.20;69.00
68922;DHT22;55959;51.244;5.724;2023-01-29T15:58:53;6.20;69.00
68922;DHT22;55959;51.244;5.724;2023-01-29T16:01:20;6.20;69.00
68922;DHT22;55959;51.244;5.724;2023-01-29T16:03:49;6.20;68.90
68922;DHT22;55959;51.244;5.724;2023-01-29T16:06:15;6.20;68.90
68922;DHT22;55959;51.244;5.724;2023-01-29T16:08:45;6.30;68.90
68922;DHT22;55959;51.244;5.724;2023-01-29T16:11:15;6.20;68.70
68922;DHT22;55959;51.244;5.724;2023-01-29T16:13:42;6.20;68.70
68922;DHT22;55959;51.244;5.724;2023-01-29T16:18:42;6.30;68.70
68922;DHT22;55959;51.244;5.724;2023-01-29T16:21:16;6.30;68.70
68922;DHT22;55959;51.244;5.724;2023-01-29T16:23:49;6.30;68.70
68922;DHT22;55959;51.244;5.724;2023-01-29T16:26:30;6.20;68.60
68922;DHT22;55959;51.244;5.724;2023-01-29T16:29:07;6.30;68.60
68922;DHT22;55959;51.244;5.724;2023-01-29T16:31:35;6.30;68.60
68922;DHT22;55959;51.244;5.724;2023-01-29T16:34:09;6.20;68.60
68922;DHT22;55959;51.244;5.724;2023-01-29T16:36:46;6.20;68.50
68922;DHT22;55959;51.244;5.724;2023-01-29T16:44:36;6.30;68.50
68922;DHT22;55959;51.244;5.724;2023-01-29T16:47:19;6.30;68.50
68922;DHT22;55959;51.244;5.724;2023-01-29T16:49:52;6.30;68.40
68922;DHT22;55959;51.244;5.724;2023-01-29T16:52:26;6.20;68.30
68922;DHT22;55959;51.244;5.724;2023-01-29T16:57:37;6.20;68.30
68922;DHT22;55959;51.244;5.724;2023-01-29T17:00:07;6.20;68.20
68922;DHT22;55959;51.244;5.724;2023-01-29T17:02:38;6.20;68.20
68922;DHT22;55959;51.244;5.724;2023-01-29T17:05:08;6.20;68.00
68922;DHT22;55959;51.244;5.724;2023-01-29T17:07:38;6.20;68.00
68922;DHT22;55959;51.244;5.724;2023-01-29T17:10:18;6.20;68.10
68922;DHT22;55959;51.244;5.724;2023-01-29T17:13:17;6.20;68.00
68922;DHT22;55959;51.244;5.724;2023-01-29T17:15:48;6.20;68.00
68922;DHT22;55959;51.244;5.724;2023-01-29T17:18:19;6.20;68.10
68922;DHT22;55959;51.244;5.724;2023-01-29T17:20:49;6.20;68.00
68922;DHT22;55959;51.244;5.724;2023-01-29T17:23:15;6.20;68.00
68922;DHT22;55959;51.244;5.724;2023-01-29T17:25:41;6.20;68.10
68922;DHT22;55959;51.244;5.724;2023-01-29T17:28:13;6.20;68.10
68922;DHT22;55959;51.244;5.724;2023-01-29T17:30:41;6.20;68.00
68922;DHT22;55959;51.244;5.724;2023-01-29T17:33:12;6.20;67.90
68922;DHT22;55959;51.244;5.724;2023-01-29T17:35:43;6.20;67.70
68922;DHT22;55959;51.244;5.724;2023-01-29T17:38:11;6.20;67.90
68922;DHT22;55959;51.244;5.724;2023-01-29T17:40:54;6.20;67.80
68922;DHT22;55959;51.244;5.724;2023-01-29T17:43:28;6.20;67.90
68922;DHT22;55959;51.244;5.724;2023-01-29T17:45:54;6.20;67.80
68922;DHT22;55959;51.244;5.724;2023-01-29T17:48:22;6.20;67.90
68922;DHT22;55959;51.244;5.724;2023-01-29T17:50:54;6.10;67.80
68922;DHT22;55959;51.244;5.724;2023-01-29T17:53:22;6.20;67.90
68922;DHT22;55959;51.244;5.724;2023-01-29T17:55:48;6.10;67.90
68922;DHT22;55959;51.244;5.724;2023-01-29T17:58:24;6.10;67.90
68922;DHT22;55959;51.244;5.724;2023-01-29T18:00:51;6.20;67.90
68922;DHT22;55959;51.244;5.724;2023-01-29T18:03:17;6.20;67.90
68922;DHT22;55959;51.244;5.724;2023-01-29T18:05:45;6.20;68.00
68922;DHT22;55959;51.244;5.724;2023-01-29T18:08:21;6.20;67.90
68922;DHT22;55959;51.244;5.724;2023-01-29T18:10:51;6.20;67.90
68922;DHT22;55959;51.244;5.724;2023-01-29T18:13:17;6.20;68.00
68922;DHT22;55959;51.244;5.724;2023-01-29T18:15:42;6.10;68.00
68922;DHT22;55959;51.244;5.724;2023-01-29T18:18:12;6.20;68.10
68922;DHT22;55959;51.244;5.724;2023-01-29T18:20:39;6.20;68.10
68922;DHT22;55959;51.244;5.724;2023-01-29T18:23:06;6.20;68.20
68922;DHT22;55959;51.244;5.724;2023-01-29T18:25:32;6.10;68.10
68922;DHT22;55959;51.244;5.724;2023-01-29T18:27:59;6.20;68.20
68922;DHT22;55959;51.244;5.724;2023-01-29T18:30:25;6.20;68.10
68922;DHT22;55959;51.244;5.724;2023-01-29T18:32:51;6.20;68.20
68922;DHT22;55959;51.244;5.724;2023-01-29T18:35:17;6.20;68.30
68922;DHT22;55959;51.244;5.724;2023-01-29T18:37:43;6.20;68.50
68922;DHT22;55959;51.244;5.724;2023-01-29T18:40:10;6.20;68.60
68922;DHT22;55959;51.244;5.724;2023-01-29T18:42:38;6.20;68.70
68922;DHT22;55959;51.244;5.724;2023-01-29T18:45:05;6.20;68.80
68922;DHT22;55959;51.244;5.724;2023-01-29T18:47:32;6.20;69.10
68922;DHT22;55959;51.244;5.724;2023-01-29T18:49:57;6.20;69.30
68922;DHT22;55959;51.244;5.724;2023-01-29T18:52:23;6.20;69.50
68922;DHT22;55959;51.244;5.724;2023-01-29T18:54:50;6.10;69.70
68922;DHT22;55959;51.244;5.724;2023-01-29T18:57:17;6.10;70.00
68922;DHT22;55959;51.244;5.724;2023-01-29T18:59:42;6.10;70.20
68922;DHT22;55959;51.244;5.724;2023-01-29T19:02:14;6.10;70.40
68922;DHT22;55959;51.244;5.724;2023-01-29T19:04:42;6.10;70.60
68922;DHT22;55959;51.244;5.724;2023-01-29T19:07:09;6.10;70.70
68922;DHT22;55959;51.244;5.724;2023-01-29T19:09:35;6.10;70.80
68922;DHT22;55959;51.244;5.724;2023-01-29T19:12:01;6.10;70.90
68922;DHT22;55959;51.244;5.724;2023-01-29T19:14:27;6.10;70.90